createdAt,value
2019-05-06T00:00:55.399Z,45.40
2019-05-06T00:01:51.410Z,45.50
2019-05-06T00:02:55.572Z,46.30
2019-05-06T00:04:01.046Z,45.60
2019-05-06T00:05:06.469Z,45.70
2019-05-06T00:06:11.703Z,45.60
2019-05-06T00:07:17.213Z,45.70
2019-05-06T00:08:23.693Z,45.80
2019-05-06T00:09:29.446Z,45.80
2019-05-06T00:10:35.683Z,46.00
2019-05-06T00:11:39.962Z,46.10
2019-05-06T00:12:44.507Z,46.30
2019-05-06T00:13:48.712Z,46.30
2019-05-06T00:14:54.214Z,46.20
2019-05-06T00:15:58.481Z,46.10
2019-05-06T00:17:03.889Z,46.20
2019-05-06T00:18:08.293Z,46.20
2019-05-06T00:19:13.868Z,46.30
2019-05-06T00:20:18.364Z,46.20
2019-05-06T00:21:24.443Z,46.20
2019-05-06T00:22:28.524Z,46.30
2019-05-06T00:23:37.774Z,46.50
2019-05-06T00:24:47.413Z,46.50
2019-05-06T00:26:00.432Z,46.50
2019-05-06T00:27:09.189Z,46.50
2019-05-06T00:28:17.747Z,46.60
2019-05-06T00:29:24.217Z,46.80
2019-05-06T00:30:28.497Z,47.30
2019-05-06T00:31:34.581Z,47.10
2019-05-06T00:32:38.381Z,47.20
2019-05-06T00:33:44.287Z,47.30
2019-05-06T00:34:48.230Z,47.30
2019-05-06T00:35:53.854Z,47.30
2019-05-06T00:36:58.026Z,47.30
2019-05-06T00:38:04.369Z,47.30
2019-05-06T00:39:12.515Z,47.40
2019-05-06T00:40:18.223Z,47.50
2019-05-06T00:41:26.525Z,47.60
2019-05-06T00:42:31.594Z,47.70
2019-05-06T00:43:35.707Z,47.60
2019-05-06T00:44:41.345Z,47.70
2019-05-06T00:45:45.520Z,47.60
2019-05-06T00:46:49.820Z,47.70
2019-05-06T00:47:56.038Z,47.90
2019-05-06T00:49:00.291Z,48.40
2019-05-06T00:50:05.945Z,48.30
2019-05-06T00:51:10.033Z,48.20
2019-05-06T00:52:16.120Z,48.00
2019-05-06T00:53:23.841Z,48.10
2019-05-06T00:54:34.296Z,48.20
2019-05-06T00:55:35.894Z,48.10
2019-05-06T00:56:41.308Z,48.20
2019-05-06T00:57:45.579Z,48.40
2019-05-06T00:58:49.920Z,48.60
2019-05-06T00:59:54.815Z,48.60
2019-05-06T01:00:59.144Z,48.50
2019-05-06T01:02:04.646Z,48.50
2019-05-06T01:03:09.035Z,48.40
2019-05-06T01:04:17.008Z,48.40
2019-05-06T01:05:24.434Z,48.40
2019-05-06T01:06:30.845Z,48.50
2019-05-06T01:07:38.190Z,48.50
2019-05-06T01:08:44.225Z,48.60
2019-05-06T01:09:48.434Z,48.60
2019-05-06T01:10:55.459Z,48.80
2019-05-06T01:12:00.092Z,49.20
2019-05-06T01:13:21.654Z,48.90
2019-05-06T01:14:27.549Z,49.10
2019-05-06T01:15:31.900Z,49.60
2019-05-06T01:16:39.450Z,49.00
2019-05-06T01:17:45.082Z,49.20
2019-05-06T01:18:50.957Z,49.20
2019-05-06T01:19:55.835Z,49.10
2019-05-06T01:21:14.344Z,49.10
2019-05-06T01:22:20.138Z,49.10
2019-05-06T01:23:25.100Z,49.20
2019-05-06T01:24:32.093Z,49.20
2019-05-06T01:25:36.340Z,49.30
2019-05-06T01:26:41.903Z,49.50
2019-05-06T01:27:46.118Z,49.40
2019-05-06T01:28:51.517Z,49.30
2019-05-06T01:29:55.696Z,49.60
2019-05-06T01:31:00.001Z,49.50
2019-05-06T01:32:04.146Z,49.50
2019-05-06T01:33:11.015Z,49.30
2019-05-06T01:34:14.227Z,49.50
2019-05-06T01:35:19.607Z,49.40
2019-05-06T01:36:25.465Z,49.30
2019-05-06T01:37:31.879Z,49.20
2019-05-06T01:38:44.303Z,49.10
2019-05-06T01:39:50.313Z,49.00
2019-05-06T01:41:03.992Z,49.10
2019-05-06T01:42:13.870Z,49.70
2019-05-06T01:43:20.069Z,49.20
2019-05-06T01:44:24.447Z,49.20
2019-05-06T01:45:28.841Z,49.00
2019-05-06T01:46:34.392Z,49.00
2019-05-06T01:47:40.111Z,49.00
2019-05-06T01:48:47.617Z,48.90
2019-05-06T01:49:53.693Z,49.20
2019-05-06T01:50:57.803Z,49.00
2019-05-06T01:52:04.155Z,48.90
2019-05-06T01:53:09.157Z,48.90
2019-05-06T01:54:14.644Z,48.80
2019-05-06T01:55:18.766Z,48.90
2019-05-06T01:56:24.158Z,49.10
2019-05-06T01:57:30.189Z,49.10
2019-05-06T01:58:35.919Z,49.10
2019-05-06T01:59:44.364Z,49.30
2019-05-06T02:00:49.867Z,49.10
2019-05-06T02:02:00.513Z,49.00
2019-05-06T02:02:59.910Z,49.00
2019-05-06T02:04:10.791Z,49.10
2019-05-06T02:05:19.457Z,49.10
2019-05-06T02:06:24.946Z,48.80
2019-05-06T02:07:31.579Z,49.00
2019-05-06T02:08:37.733Z,49.00
2019-05-06T02:09:42.031Z,49.00
2019-05-06T02:10:49.319Z,49.00
2019-05-06T02:11:53.731Z,49.00
2019-05-06T02:12:59.358Z,49.00
2019-05-06T02:14:05.079Z,48.80
2019-05-06T02:15:12.100Z,48.50
2019-05-06T02:16:17.427Z,48.40
2019-05-06T02:17:23.762Z,48.40
2019-05-06T02:18:30.264Z,48.50
2019-05-06T02:19:36.167Z,48.50
2019-05-06T02:20:44.437Z,48.50
2019-05-06T02:21:49.067Z,48.70
2019-05-06T02:23:08.326Z,48.80
2019-05-06T02:24:16.858Z,48.80
2019-05-06T02:25:24.386Z,48.60
2019-05-06T02:26:30.288Z,48.50
2019-05-06T02:27:35.953Z,48.50
2019-05-06T02:28:43.555Z,48.80
2019-05-06T02:29:49.281Z,48.60
2019-05-06T02:31:14.618Z,48.60
2019-05-06T02:32:26.232Z,48.70
2019-05-06T02:33:38.018Z,49.10
2019-05-06T02:34:54.909Z,48.70
2019-05-06T02:36:14.886Z,48.70
2019-05-06T02:37:20.123Z,48.70
2019-05-06T02:38:46.074Z,49.00
2019-05-06T02:39:38.647Z,49.00
2019-05-06T02:40:43.939Z,49.00
2019-05-06T02:41:50.786Z,49.10
2019-05-06T02:42:56.460Z,49.40
2019-05-06T02:44:03.529Z,49.30
2019-05-06T02:45:12.716Z,49.40
2019-05-06T02:46:15.711Z,49.40
2019-05-06T02:47:37.227Z,49.20
2019-05-06T02:48:57.517Z,49.20
2019-05-06T02:50:13.437Z,49.20
2019-05-06T02:51:18.478Z,50.10
2019-05-06T02:52:23.035Z,49.50
2019-05-06T02:53:29.242Z,49.60
2019-05-06T02:54:38.681Z,49.80
2019-05-06T02:55:46.079Z,49.80
2019-05-06T02:56:53.141Z,49.60
2019-05-06T02:58:02.879Z,49.50
2019-05-06T02:59:08.614Z,49.50
2019-05-06T03:00:19.468Z,49.80
2019-05-06T03:01:25.226Z,49.60
2019-05-06T03:02:39.839Z,49.60
2019-05-06T03:03:43.655Z,49.60
2019-05-06T03:04:52.589Z,49.60
2019-05-06T03:05:54.105Z,49.50
2019-05-06T03:07:03.671Z,49.60
2019-05-06T03:08:13.433Z,49.60
2019-05-06T03:09:17.905Z,49.70
2019-05-06T03:10:27.003Z,49.90
2019-05-06T03:11:33.180Z,49.80
2019-05-06T03:12:39.436Z,50.10
2019-05-06T03:13:45.288Z,49.80
2019-05-06T03:14:53.263Z,49.90
2019-05-06T03:16:05.270Z,49.80
2019-05-06T03:17:07.511Z,49.90
2019-05-06T03:18:14.708Z,50.00
2019-05-06T03:19:19.297Z,50.10
2019-05-06T03:20:39.865Z,50.20
2019-05-06T03:21:48.593Z,50.20
2019-05-06T03:22:54.620Z,50.10
2019-05-06T03:24:04.007Z,50.00
2019-05-06T03:25:13.347Z,50.00
2019-05-06T03:26:17.849Z,50.30
2019-05-06T03:27:23.934Z,50.50
2019-05-06T03:28:28.226Z,50.50
2019-05-06T03:29:44.557Z,50.30
2019-05-06T03:30:50.234Z,50.40
2019-05-06T03:31:56.224Z,50.40
2019-05-06T03:33:31.423Z,50.40
2019-05-06T03:34:35.889Z,50.30
2019-05-06T03:35:31.463Z,50.30
2019-05-06T03:36:27.172Z,50.50
2019-05-06T03:37:25.664Z,51.10
2019-05-06T03:38:29.907Z,50.50
2019-05-06T03:39:34.159Z,50.40
2019-05-06T03:40:45.111Z,50.30
2019-05-06T03:41:47.975Z,50.40
2019-05-06T03:42:54.679Z,50.70
2019-05-06T03:44:03.230Z,50.80
2019-05-06T03:45:13.114Z,50.50
2019-05-06T03:46:37.157Z,50.40
2019-05-06T03:47:46.915Z,50.30
2019-05-06T03:48:53.145Z,50.10
2019-05-06T03:50:04.303Z,50.00
2019-05-06T03:51:05.510Z,50.00
2019-05-06T03:52:13.634Z,50.10
2019-05-06T03:53:18.340Z,50.20
2019-05-06T03:54:23.665Z,50.20
2019-05-06T03:55:29.694Z,50.20
2019-05-06T03:56:36.779Z,50.10
2019-05-06T03:57:42.940Z,49.90
2019-05-06T03:58:49.092Z,49.80
2019-05-06T03:59:54.990Z,49.80
2019-05-06T04:01:03.551Z,49.80
2019-05-06T04:02:15.284Z,49.70
2019-05-06T04:03:15.084Z,49.70
2019-05-06T04:04:19.391Z,49.60
2019-05-06T04:05:23.989Z,49.40
2019-05-06T04:06:32.997Z,49.30
2019-05-06T04:07:36.696Z,49.20
2019-05-06T04:08:43.649Z,49.30
2019-05-06T04:09:47.328Z,49.20
2019-05-06T04:10:54.019Z,49.40
2019-05-06T04:11:59.270Z,49.60
2019-05-06T04:13:04.910Z,49.20
2019-05-06T04:14:14.026Z,50.30
2019-05-06T04:15:19.310Z,49.40
2019-05-06T04:16:44.112Z,49.20
2019-05-06T04:17:58.126Z,49.20
2019-05-06T04:19:06.661Z,49.10
2019-05-06T04:20:18.984Z,48.80
2019-05-06T04:21:24.846Z,48.50
2019-05-06T04:22:33.265Z,48.40
2019-05-06T04:23:38.754Z,48.30
2019-05-06T04:24:47.409Z,48.30
2019-05-06T04:26:06.643Z,48.40
2019-05-06T04:27:42.765Z,48.30
2019-05-06T04:28:46.431Z,48.30
2019-05-06T04:29:54.398Z,48.40
2019-05-06T04:30:58.711Z,48.30
2019-05-06T04:32:04.967Z,48.40
2019-05-06T04:33:12.809Z,48.40
2019-05-06T04:34:19.392Z,48.40
2019-05-06T04:35:22.952Z,48.40
2019-05-06T04:36:27.843Z,48.20
2019-05-06T04:37:33.927Z,48.00
2019-05-06T04:38:43.263Z,48.00
2019-05-06T04:39:48.092Z,48.10
2019-05-06T04:40:54.325Z,48.10
2019-05-06T04:41:58.799Z,48.10
2019-05-06T04:43:03.798Z,48.10
2019-05-06T04:44:13.544Z,48.00
2019-05-06T04:45:17.241Z,47.80
2019-05-06T04:46:23.869Z,48.00
2019-05-06T04:47:28.242Z,48.00
2019-05-06T04:48:36.851Z,47.70
2019-05-06T04:49:43.687Z,47.60
2019-05-06T04:50:48.015Z,47.70
2019-05-06T04:51:54.050Z,47.90
2019-05-06T04:53:04.861Z,48.00
2019-05-06T04:54:09.391Z,48.00
2019-05-06T04:55:15.083Z,48.00
2019-05-06T04:56:19.269Z,48.40
2019-05-06T04:57:23.948Z,48.00
2019-05-06T04:58:28.378Z,47.90
2019-05-06T04:59:32.728Z,47.80
2019-05-06T05:00:38.150Z,47.60
2019-05-06T05:01:45.481Z,47.60
2019-05-06T05:02:48.622Z,47.70
2019-05-06T05:03:53.896Z,47.90
2019-05-06T05:04:58.411Z,47.90
2019-05-06T05:06:05.829Z,47.80
2019-05-06T05:07:08.870Z,47.60
2019-05-06T05:08:13.601Z,47.60
2019-05-06T05:09:17.780Z,47.80
2019-05-06T05:10:23.689Z,47.70
2019-05-06T05:11:33.243Z,47.70
2019-05-06T05:12:57.565Z,47.60
2019-05-06T05:14:03.637Z,47.50
2019-05-06T05:15:23.781Z,47.40
2019-05-06T05:16:33.425Z,47.20
2019-05-06T05:17:39.296Z,47.10
2019-05-06T05:18:47.716Z,47.00
2019-05-06T05:19:52.362Z,47.00
2019-05-06T05:20:58.747Z,47.10
2019-05-06T05:22:06.028Z,47.30
2019-05-06T05:23:12.013Z,47.40
2019-05-06T05:24:18.527Z,47.40
2019-05-06T05:25:24.319Z,47.20
2019-05-06T05:26:32.234Z,47.20
2019-05-06T05:27:36.238Z,47.10
2019-05-06T05:28:42.805Z,47.10
2019-05-06T05:29:47.777Z,47.20
2019-05-06T05:30:52.772Z,47.30
2019-05-06T05:31:57.016Z,47.30
2019-05-06T05:33:03.259Z,47.10
2019-05-06T05:34:07.512Z,46.90
2019-05-06T05:35:12.781Z,46.70
2019-05-06T05:36:17.187Z,46.70
2019-05-06T05:37:22.771Z,46.50
2019-05-06T05:38:27.290Z,46.40
2019-05-06T05:39:33.292Z,46.50
2019-05-06T05:40:37.688Z,46.40
2019-05-06T05:41:43.464Z,46.40
2019-05-06T05:42:49.214Z,46.30
2019-05-06T05:44:02.302Z,46.40
2019-05-06T05:45:07.058Z,46.30
2019-05-06T05:46:12.610Z,46.40
2019-05-06T05:47:17.476Z,46.00
2019-05-06T05:48:39.686Z,46.00
2019-05-06T05:50:03.177Z,45.80
2019-05-06T05:51:07.612Z,45.80
2019-05-06T05:52:16.419Z,45.70
2019-05-06T05:53:19.869Z,45.70
2019-05-06T05:54:24.448Z,45.90
2019-05-06T05:55:28.630Z,45.90
2019-05-06T05:56:34.265Z,45.80
2019-05-06T05:57:38.420Z,45.80
2019-05-06T05:58:45.772Z,45.90
2019-05-06T05:59:52.836Z,45.70
2019-05-06T06:00:58.030Z,45.50
2019-05-06T06:02:03.997Z,45.40
2019-05-06T06:03:13.247Z,45.30
2019-05-06T06:04:16.101Z,45.30
2019-05-06T06:05:30.028Z,45.30
2019-05-06T06:06:34.239Z,45.30
2019-05-06T06:10:42.474Z,45.20
2019-05-06T06:12:12.040Z,44.70
2019-05-06T06:15:27.997Z,44.40
2019-05-06T06:16:50.070Z,44.00
2019-05-06T06:18:03.089Z,44.10
2019-05-06T06:20:34.438Z,44.20
2019-05-06T06:20:46.337Z,44.10
2019-05-06T06:23:27.596Z,44.20
2019-05-06T06:24:36.759Z,44.20
2019-05-06T06:25:49.578Z,44.30
2019-05-06T06:26:57.242Z,44.40
2019-05-06T06:28:04.586Z,44.50
2019-05-06T06:29:08.857Z,44.50
2019-05-06T06:30:16.242Z,44.60
2019-05-06T06:31:26.217Z,44.60
2019-05-06T06:32:33.596Z,44.40
2019-05-06T06:33:42.761Z,44.10
2019-05-06T06:35:07.393Z,44.00
2019-05-06T06:36:04.070Z,43.60
2019-05-06T06:37:25.969Z,43.30
2019-05-06T06:38:49.911Z,43.10
2019-05-06T06:39:54.916Z,43.10
2019-05-06T06:40:59.037Z,43.10
2019-05-06T06:42:06.171Z,43.20
2019-05-06T06:43:14.816Z,43.00
2019-05-06T06:44:22.157Z,42.60
2019-05-06T06:45:26.509Z,42.30
2019-05-06T06:46:32.386Z,42.00
2019-05-06T06:47:39.687Z,42.10
2019-05-06T06:48:46.704Z,42.00
2019-05-06T06:49:55.057Z,42.60
2019-05-06T06:51:03.314Z,42.00
2019-05-06T06:52:22.947Z,41.90
2019-05-06T06:53:16.741Z,41.90
2019-05-06T06:54:22.720Z,42.50
2019-05-06T06:55:29.252Z,41.80
2019-05-06T06:56:34.213Z,41.80
2019-05-06T06:57:48.641Z,41.40
2019-05-06T06:59:04.050Z,41.40
2019-05-06T07:00:27.832Z,41.40
2019-05-06T07:01:42.219Z,41.50
2019-05-06T07:03:02.582Z,41.10
2019-05-06T07:04:14.111Z,40.90
2019-05-06T07:05:28.368Z,40.90
2019-05-06T07:06:38.156Z,41.00
2019-05-06T07:07:47.344Z,41.00
2019-05-06T07:08:53.038Z,41.10
2019-05-06T07:09:58.482Z,41.20
2019-05-06T07:11:02.772Z,41.10
2019-05-06T07:12:13.960Z,41.10
2019-05-06T07:13:23.126Z,41.10
2019-05-06T07:14:32.317Z,41.00
2019-05-06T07:15:37.259Z,40.80
2019-05-06T07:16:43.618Z,40.80
2019-05-06T07:17:52.491Z,40.90
2019-05-06T07:19:05.456Z,41.10
2019-05-06T07:20:23.063Z,41.20
2019-05-06T07:21:45.040Z,41.10
2019-05-06T07:22:49.986Z,41.10
2019-05-06T07:23:54.049Z,41.20
2019-05-06T07:25:03.551Z,41.20
2019-05-06T07:26:05.634Z,41.30
2019-05-06T07:27:12.506Z,41.40
2019-05-06T07:28:19.663Z,41.10
2019-05-06T07:29:36.334Z,40.70
2019-05-06T07:30:37.066Z,40.70
2019-05-06T07:31:48.274Z,40.70
2019-05-06T07:32:52.767Z,40.90
2019-05-06T07:33:57.200Z,40.80
2019-05-06T07:35:06.150Z,40.60
2019-05-06T07:36:08.756Z,40.50
2019-05-06T07:37:12.992Z,40.40
2019-05-06T07:38:24.046Z,40.40
2019-05-06T07:39:24.129Z,40.10
2019-05-06T07:40:28.583Z,39.80
2019-05-06T07:41:45.888Z,39.20
2019-05-06T07:42:52.679Z,39.20
2019-05-06T07:43:58.484Z,39.60
2019-05-06T07:45:22.458Z,39.50
2019-05-06T07:46:42.293Z,39.20
2019-05-06T07:47:53.825Z,39.80
2019-05-06T07:48:57.905Z,39.20
2019-05-06T07:50:02.562Z,38.90
2019-05-06T07:51:07.002Z,38.80
2019-05-06T07:52:12.374Z,38.50
2019-05-06T07:53:16.684Z,38.60
2019-05-06T07:54:22.094Z,38.70
2019-05-06T07:55:26.285Z,38.80
2019-05-06T07:56:32.227Z,38.80
2019-05-06T07:57:36.237Z,38.70
2019-05-06T07:58:40.296Z,38.60
2019-05-06T07:59:44.415Z,38.40
2019-05-06T08:00:48.570Z,38.30
2019-05-06T08:01:54.080Z,37.90
2019-05-06T08:02:59.473Z,37.70
2019-05-06T08:04:04.273Z,37.80
2019-05-06T08:05:08.463Z,38.00
2019-05-06T08:06:13.229Z,38.00
2019-05-06T08:07:18.742Z,38.10
2019-05-06T08:08:23.123Z,37.90
2019-05-06T08:09:27.388Z,37.60
2019-05-06T08:10:33.158Z,37.50
2019-05-06T08:11:38.356Z,37.00
2019-05-06T08:12:42.847Z,36.90
2019-05-06T08:13:47.083Z,36.90
2019-05-06T08:14:53.242Z,37.00
2019-05-06T08:15:57.432Z,36.90
2019-05-06T08:17:03.165Z,36.70
2019-05-06T08:18:07.314Z,36.60
2019-05-06T08:19:12.020Z,36.90
2019-05-06T08:20:16.461Z,36.80
2019-05-06T08:21:26.333Z,36.90
2019-05-06T08:22:33.392Z,37.00
2019-05-06T08:23:45.061Z,37.20
2019-05-06T08:24:56.089Z,37.20
2019-05-06T08:26:09.046Z,37.30
2019-05-06T08:27:03.742Z,37.50
2019-05-06T08:28:08.949Z,37.10
2019-05-06T08:32:56.996Z,35.60
2019-05-06T08:33:58.496Z,35.90
2019-05-06T08:35:03.384Z,35.80
2019-05-06T08:36:12.506Z,35.60
2019-05-06T08:37:19.792Z,35.20
2019-05-06T08:38:26.514Z,35.30
2019-05-06T08:39:29.922Z,35.60
2019-05-06T08:40:34.100Z,35.60
2019-05-06T08:41:38.625Z,35.70
2019-05-06T08:42:42.813Z,35.80
2019-05-06T08:43:46.889Z,35.20
2019-05-06T08:44:53.025Z,34.90
2019-05-06T08:45:58.951Z,34.80
2019-05-06T08:47:06.144Z,35.00
2019-05-06T08:48:12.982Z,35.20
2019-05-06T08:49:16.346Z,35.40
2019-05-06T08:50:36.989Z,35.60
2019-05-06T08:51:54.858Z,35.70
2019-05-06T08:53:13.888Z,35.20
2019-05-06T08:54:20.035Z,34.70
2019-05-06T08:55:28.724Z,34.80
2019-05-06T08:56:32.813Z,34.90
2019-05-06T08:57:36.866Z,34.80
2019-05-06T08:58:47.739Z,34.40
2019-05-06T08:59:53.661Z,34.70
2019-05-06T09:01:03.906Z,34.80
2019-05-06T09:02:09.257Z,34.90
2019-05-06T09:03:14.279Z,34.60
2019-05-06T09:04:18.676Z,34.50
2019-05-06T09:05:24.431Z,34.40
2019-05-06T09:06:33.125Z,34.20
2019-05-06T09:07:34.742Z,34.10
2019-05-06T09:08:43.042Z,34.10
2019-05-06T09:09:56.644Z,34.00
2019-05-06T09:11:00.069Z,33.90
2019-05-06T09:12:07.105Z,33.90
2019-05-06T09:13:12.326Z,34.20
2019-05-06T09:14:34.293Z,34.20
2019-05-06T09:15:42.898Z,35.00
2019-05-06T09:16:53.053Z,34.30
2019-05-06T09:17:55.548Z,34.10
2019-05-06T09:19:04.032Z,33.50
2019-05-06T09:20:08.279Z,32.80
2019-05-06T09:21:12.470Z,32.20
2019-05-06T09:22:19.753Z,32.60
2019-05-06T09:23:27.286Z,32.90
2019-05-06T09:24:31.933Z,33.10
2019-05-06T09:25:35.775Z,33.30
2019-05-06T09:26:43.144Z,33.20
2019-05-06T09:27:49.197Z,32.90
2019-05-06T09:29:12.715Z,32.50
2019-05-06T09:30:44.152Z,32.40
2019-05-06T09:31:52.998Z,32.70
2019-05-06T09:32:57.314Z,32.80
2019-05-06T09:34:13.031Z,32.90
2019-05-06T09:35:17.765Z,32.60
2019-05-06T09:36:22.899Z,32.50
2019-05-06T09:37:27.336Z,32.20
2019-05-06T09:38:32.182Z,32.90
2019-05-06T09:39:36.416Z,32.30
2019-05-06T09:40:40.549Z,32.20
2019-05-06T09:41:46.581Z,32.20
2019-05-06T09:42:52.210Z,31.70
2019-05-06T09:43:59.633Z,31.20
2019-05-06T09:45:06.194Z,31.10
2019-05-06T09:46:17.664Z,30.90
2019-05-06T09:47:44.335Z,30.70
2019-05-06T09:49:03.326Z,30.00
2019-05-06T09:50:13.077Z,30.00
2019-05-06T09:51:19.077Z,29.90
2019-05-06T09:52:28.973Z,29.70
2019-05-06T09:54:33.557Z,29.50
2019-05-06T09:54:53.450Z,29.50
2019-05-06T09:56:16.223Z,29.20
2019-05-06T09:57:25.131Z,29.00
2019-05-06T09:58:32.320Z,29.20
2019-05-06T09:59:42.032Z,29.10
2019-05-06T10:00:45.212Z,29.00
2019-05-06T10:02:14.402Z,29.10
2019-05-06T10:02:56.877Z,29.00
2019-05-06T10:04:03.284Z,29.00
2019-05-06T10:05:07.961Z,29.40
2019-05-06T10:06:14.350Z,29.60
2019-05-06T10:07:18.853Z,29.50
2019-05-06T10:08:23.047Z,29.30
2019-05-06T10:09:28.889Z,28.80
2019-05-06T10:10:34.585Z,28.90
2019-05-06T10:11:42.224Z,29.00
2019-05-06T10:12:48.271Z,29.10
2019-05-06T10:13:54.693Z,28.80
2019-05-06T10:14:58.956Z,28.90
2019-05-06T10:16:04.675Z,28.90
2019-05-06T10:17:13.106Z,29.10
2019-05-06T10:18:16.823Z,29.20
2019-05-06T10:19:22.684Z,28.80
2019-05-06T10:20:27.179Z,27.70
2019-05-06T10:21:32.303Z,27.80
2019-05-06T10:22:37.024Z,27.50
2019-05-06T10:23:42.330Z,27.50
2019-05-06T10:24:48.330Z,27.20
2019-05-06T10:25:54.245Z,26.70
2019-05-06T10:27:08.009Z,26.50
2019-05-06T10:28:12.579Z,26.10
2019-05-06T10:29:36.737Z,26.40
2019-05-06T10:30:40.978Z,26.60
2019-05-06T10:31:55.492Z,24.90
2019-05-06T10:33:02.104Z,25.00
2019-05-06T10:34:14.077Z,25.40
2019-05-06T10:35:22.070Z,25.60
2019-05-06T10:36:32.403Z,25.90
2019-05-06T10:37:53.027Z,26.20
2019-05-06T10:38:58.975Z,26.30
2019-05-06T10:40:06.185Z,26.10
2019-05-06T10:41:16.937Z,26.10
2019-05-06T10:42:24.186Z,26.40
2019-05-06T10:43:53.911Z,26.00
2019-05-06T10:45:02.396Z,25.80
2019-05-06T10:46:06.551Z,25.90
2019-05-06T10:47:12.219Z,26.10
2019-05-06T10:48:27.614Z,26.10
2019-05-06T10:49:22.873Z,26.00
2019-05-06T10:50:34.014Z,26.10
2019-05-06T10:51:58.700Z,26.80
2019-05-06T10:53:08.575Z,26.40
2019-05-06T10:54:12.804Z,26.70
2019-05-06T10:55:17.063Z,26.10
2019-05-06T10:56:28.897Z,26.20
2019-05-06T10:57:34.817Z,26.20
2019-05-06T10:58:43.941Z,26.30
2019-05-06T10:59:49.467Z,26.50
2019-05-06T11:01:03.876Z,26.70
2019-05-06T11:02:14.770Z,26.70
2019-05-06T11:03:22.422Z,26.60
2019-05-06T11:04:29.010Z,26.60
2019-05-06T11:05:33.331Z,26.60
2019-05-06T11:06:37.526Z,26.60
2019-05-06T11:07:44.266Z,26.70
2019-05-06T11:08:47.704Z,26.80
2019-05-06T11:09:54.925Z,26.90
2019-05-06T11:11:14.792Z,27.00
2019-05-06T11:12:09.168Z,27.00
2019-05-06T11:13:16.493Z,27.10
2019-05-06T11:14:22.712Z,27.30
2019-05-06T11:15:32.841Z,27.20
2019-05-06T11:16:36.289Z,27.30
2019-05-06T11:17:43.645Z,27.40
2019-05-06T11:18:48.019Z,27.30
2019-05-06T11:19:53.925Z,27.40
2019-05-06T11:20:57.986Z,27.40
2019-05-06T11:22:03.595Z,27.50
2019-05-06T11:23:09.145Z,27.20
2019-05-06T11:24:19.988Z,27.40
2019-05-06T11:25:25.017Z,27.10
2019-05-06T11:26:48.143Z,27.10
2019-05-06T11:27:52.786Z,27.50
2019-05-06T11:29:04.727Z,27.80
2019-05-06T11:30:08.716Z,27.60
2019-05-06T11:31:14.645Z,27.40
2019-05-06T11:32:23.728Z,27.40
2019-05-06T11:33:32.784Z,27.50
2019-05-06T11:34:38.298Z,27.60
2019-05-06T11:36:01.823Z,27.90
2019-05-06T11:37:25.454Z,27.80
2019-05-06T11:38:32.341Z,27.80
2019-05-06T11:39:38.172Z,28.00
2019-05-06T11:40:43.603Z,28.20
2019-05-06T11:42:01.656Z,28.30
2019-05-06T11:42:54.356Z,28.40
2019-05-06T11:44:00.228Z,28.60
2019-05-06T11:45:12.090Z,28.60
2019-05-06T11:46:17.181Z,28.50
2019-05-06T11:47:23.069Z,28.40
2019-05-06T11:48:26.378Z,28.30
2019-05-06T11:49:34.197Z,28.40
2019-05-06T11:50:42.681Z,28.90
2019-05-06T11:51:46.780Z,28.40
2019-05-06T11:52:53.081Z,28.60
2019-05-06T11:53:59.294Z,28.30
2019-05-06T11:55:03.547Z,28.10
2019-05-06T11:56:12.613Z,28.10
2019-05-06T11:57:13.646Z,28.20
2019-05-06T11:58:37.980Z,28.40
2019-05-06T11:59:46.208Z,28.60
2019-05-06T12:00:52.579Z,28.80
2019-05-06T12:02:08.300Z,28.30
2019-05-06T12:03:14.165Z,28.10
2019-05-06T12:04:19.397Z,28.00
2019-05-06T12:05:23.692Z,27.90
2019-05-06T12:06:27.905Z,27.80
2019-05-06T12:07:33.557Z,27.60
2019-05-06T12:08:40.271Z,27.60
2019-05-06T12:09:43.840Z,27.40
2019-05-06T12:10:48.060Z,27.50
2019-05-06T12:11:52.873Z,27.70
2019-05-06T12:12:57.682Z,28.60
2019-05-06T12:14:03.478Z,28.00
2019-05-06T12:15:09.194Z,28.10
2019-05-06T12:16:14.096Z,27.80
2019-05-06T12:17:18.733Z,28.20
2019-05-06T12:18:26.243Z,27.70
2019-05-06T12:19:32.647Z,27.50
2019-05-06T12:20:38.577Z,27.50
2019-05-06T12:21:44.288Z,27.70
2019-05-06T12:22:52.973Z,27.60
2019-05-06T12:24:02.917Z,27.80
2019-05-06T12:25:11.320Z,27.90
2019-05-06T12:26:18.486Z,28.00
2019-05-06T12:27:42.864Z,28.10
2019-05-06T12:28:46.658Z,28.10
2019-05-06T12:29:52.770Z,28.10
2019-05-06T12:31:04.187Z,28.20
2019-05-06T12:32:12.851Z,28.20
2019-05-06T12:33:32.881Z,28.10
2019-05-06T12:34:42.846Z,27.80
2019-05-06T12:35:47.773Z,27.70
2019-05-06T12:36:56.275Z,27.70
2019-05-06T12:38:06.842Z,27.80
2019-05-06T12:39:19.252Z,28.00
2019-05-06T12:40:39.331Z,27.90
2019-05-06T12:41:33.492Z,27.30
2019-05-06T12:42:47.500Z,27.30
2019-05-06T12:43:49.995Z,27.40
2019-05-06T12:44:58.226Z,27.20
2019-05-06T12:46:04.881Z,27.10
2019-05-06T12:47:13.539Z,26.90
2019-05-06T12:48:20.722Z,27.00
2019-05-06T12:49:25.036Z,26.50
2019-05-06T12:50:29.342Z,26.50
2019-05-06T12:51:36.144Z,26.40
2019-05-06T12:52:44.036Z,26.70
2019-05-06T12:53:49.263Z,26.40
2019-05-06T12:54:56.293Z,26.50
2019-05-06T12:56:03.260Z,26.60
2019-05-06T12:57:09.051Z,26.60
2019-05-06T12:58:14.757Z,26.70
2019-05-06T12:59:18.981Z,26.70
2019-05-06T13:00:24.779Z,26.70
2019-05-06T13:01:28.966Z,27.30
2019-05-06T13:02:33.224Z,26.70
2019-05-06T13:03:39.007Z,26.70
2019-05-06T13:04:55.174Z,26.60
2019-05-06T13:05:52.094Z,26.90
2019-05-06T13:06:59.539Z,27.00
2019-05-06T13:08:05.876Z,27.00
2019-05-06T13:09:12.541Z,26.90
2019-05-06T13:10:23.148Z,26.70
2019-05-06T13:11:31.658Z,26.50
2019-05-06T13:12:36.339Z,26.30
2019-05-06T13:13:56.156Z,26.50
2019-05-06T13:14:52.946Z,26.20
2019-05-06T13:15:59.400Z,26.30
2019-05-06T13:17:07.633Z,26.50
2019-05-06T13:18:11.884Z,26.50
2019-05-06T13:19:16.487Z,26.60
2019-05-06T13:20:22.891Z,26.50
2019-05-06T13:21:29.299Z,26.60
2019-05-06T13:22:49.704Z,26.70
2019-05-06T13:23:57.980Z,26.20
2019-05-06T13:25:04.094Z,26.30
2019-05-06T13:26:09.549Z,26.30
2019-05-06T13:27:15.367Z,26.20
2019-05-06T13:28:22.451Z,26.40
2019-05-06T13:29:28.631Z,26.50
2019-05-06T13:30:37.282Z,26.60
2019-05-06T13:31:45.996Z,27.30
2019-05-06T13:33:03.833Z,26.90
2019-05-06T13:34:09.963Z,26.40
2019-05-06T13:35:16.451Z,26.50
2019-05-06T13:36:22.578Z,26.70
2019-05-06T13:37:28.802Z,26.60
2019-05-06T13:38:42.633Z,26.60
2019-05-06T13:39:48.764Z,26.40
2019-05-06T13:40:56.644Z,26.60
2019-05-06T13:42:08.087Z,26.50
2019-05-06T13:43:14.911Z,26.50
2019-05-06T13:44:22.512Z,26.60
2019-05-06T13:45:26.311Z,26.50
2019-05-06T13:46:33.294Z,25.80
2019-05-06T13:47:57.136Z,26.10
2019-05-06T13:49:03.307Z,26.10
2019-05-06T13:50:08.892Z,25.80
2019-05-06T13:51:14.700Z,26.10
2019-05-06T13:52:22.945Z,26.10
2019-05-06T13:53:39.091Z,26.30
2019-05-06T13:54:35.604Z,26.30
2019-05-06T13:55:43.343Z,26.50
2019-05-06T13:56:49.048Z,26.50
2019-05-06T13:58:04.983Z,26.00
2019-05-06T13:58:59.291Z,25.80
2019-05-06T14:00:04.746Z,25.70
2019-05-06T14:01:18.436Z,25.30
2019-05-06T14:02:26.957Z,25.00
2019-05-06T14:03:32.285Z,25.20
2019-05-06T14:04:38.157Z,25.20
2019-05-06T14:05:42.575Z,25.30
2019-05-06T14:06:48.467Z,25.30
2019-05-06T14:07:55.227Z,25.00
2019-05-06T14:11:34.460Z,25.20
2019-05-06T14:12:42.423Z,25.00
2019-05-06T14:13:47.260Z,24.80
2019-05-06T14:14:52.711Z,23.70
2019-05-06T14:15:57.474Z,23.80
2019-05-06T14:17:01.637Z,23.80
2019-05-06T14:18:07.563Z,23.60
2019-05-06T14:19:13.150Z,23.70
2019-05-06T14:20:18.187Z,23.90
2019-05-06T14:21:23.635Z,24.10
2019-05-06T14:22:27.958Z,24.20
2019-05-06T14:23:33.417Z,23.50
2019-05-06T14:24:39.284Z,23.60
2019-05-06T14:25:53.993Z,23.70
2019-05-06T14:27:02.740Z,23.60
2019-05-06T14:28:12.513Z,23.80
2019-05-06T14:29:33.889Z,23.90
2019-05-06T14:30:42.912Z,23.90
2019-05-06T14:31:52.682Z,23.60
2019-05-06T14:32:58.633Z,23.50
2019-05-06T14:34:06.954Z,23.50
2019-05-06T14:35:12.155Z,23.50
2019-05-06T14:36:18.176Z,23.60
2019-05-06T14:37:26.298Z,23.50
2019-05-06T14:38:28.387Z,23.20
2019-05-06T14:39:48.361Z,22.90
2019-05-06T14:41:07.287Z,22.80
2019-05-06T14:42:06.704Z,22.80
2019-05-06T14:43:18.390Z,22.70
2019-05-06T14:44:19.520Z,22.60